sensor_id;sensor_type;location;lat;lon;timestamp;P1;durP1;ratioP1;P2;durP2;ratioP2
57663;SDS011;43493;53.098;6.064;2022-11-09T00:02:05;5.70;;;1.60;;
57663;SDS011;43493;53.098;6.064;2022-11-09T00:04:31;7.13;;;1.70;;
57663;SDS011;43493;53.098;6.064;2022-11-09T00:06:56;6.70;;;1.60;;
57663;SDS011;43493;53.098;6.064;2022-11-09T00:09:22;6.80;;;1.43;;
57663;SDS011;43493;53.098;6.064;2022-11-09T00:11:48;7.37;;;1.50;;
57663;SDS011;43493;53.098;6.064;2022-11-09T00:14:14;9.03;;;1.50;;
57663;SDS011;43493;53.098;6.064;2022-11-09T00:16:40;7.30;;;1.60;;
57663;SDS011;43493;53.098;6.064;2022-11-09T00:19:06;7.93;;;1.90;;
57663;SDS011;43493;53.098;6.064;2022-11-09T00:21:32;5.50;;;1.50;;
57663;SDS011;43493;53.098;6.064;2022-11-09T00:23:58;8.13;;;1.57;;
57663;SDS011;43493;53.098;6.064;2022-11-09T00:26:24;7.90;;;1.73;;
57663;SDS011;43493;53.098;6.064;2022-11-09T00:28:50;8.60;;;2.33;;
57663;SDS011;43493;53.098;6.064;2022-11-09T00:31:17;7.03;;;1.70;;
57663;SDS011;43493;53.098;6.064;2022-11-09T00:33:51;9.50;;;1.93;;
57663;SDS011;43493;53.098;6.064;2022-11-09T00:36:20;6.63;;;1.65;;
57663;SDS011;43493;53.098;6.064;2022-11-09T00:38:51;5.63;;;1.80;;
57663;SDS011;43493;53.098;6.064;2022-11-09T00:41:18;8.13;;;1.80;;
57663;SDS011;43493;53.098;6.064;2022-11-09T00:43:44;5.10;;;1.50;;
57663;SDS011;43493;53.098;6.064;2022-11-09T00:46:11;5.73;;;2.10;;
57663;SDS011;43493;53.098;6.064;2022-11-09T00:48:37;8.03;;;2.20;;
57663;SDS011;43493;53.098;6.064;2022-11-09T00:51:03;7.73;;;2.30;;
57663;SDS011;43493;53.098;6.064;2022-11-09T00:53:29;7.63;;;2.40;;
57663;SDS011;43493;53.098;6.064;2022-11-09T00:55:56;9.80;;;3.03;;
57663;SDS011;43493;53.098;6.064;2022-11-09T00:58:25;11.73;;;3.07;;
57663;SDS011;43493;53.098;6.064;2022-11-09T01:00:52;8.40;;;2.53;;
57663;SDS011;43493;53.098;6.064;2022-11-09T01:03:19;10.80;;;3.80;;
57663;SDS011;43493;53.098;6.064;2022-11-09T01:05:45;8.87;;;3.03;;
57663;SDS011;43493;53.098;6.064;2022-11-09T01:08:11;8.50;;;3.10;;
57663;SDS011;43493;53.098;6.064;2022-11-09T01:10:41;10.90;;;3.50;;
57663;SDS011;43493;53.098;6.064;2022-11-09T01:13:08;10.43;;;3.67;;
57663;SDS011;43493;53.098;6.064;2022-11-09T01:15:39;9.27;;;3.43;;
57663;SDS011;43493;53.098;6.064;2022-11-09T01:18:12;12.20;;;3.53;;
57663;SDS011;43493;53.098;6.064;2022-11-09T01:20:39;10.10;;;3.37;;
57663;SDS011;43493;53.098;6.064;2022-11-09T01:23:06;12.70;;;3.77;;
57663;SDS011;43493;53.098;6.064;2022-11-09T01:25:33;10.97;;;3.60;;
57663;SDS011;43493;53.098;6.064;2022-11-09T01:27:59;13.43;;;3.50;;
57663;SDS011;43493;53.098;6.064;2022-11-09T01:30:25;10.00;;;3.13;;
57663;SDS011;43493;53.098;6.064;2022-11-09T01:32:52;12.13;;;3.03;;
57663;SDS011;43493;53.098;6.064;2022-11-09T01:35:17;8.17;;;2.93;;
57663;SDS011;43493;53.098;6.064;2022-11-09T01:37:43;7.33;;;2.80;;
57663;SDS011;43493;53.098;6.064;2022-11-09T01:40:09;14.20;;;2.93;;
57663;SDS011;43493;53.098;6.064;2022-11-09T01:42:36;8.40;;;2.20;;
57663;SDS011;43493;53.098;6.064;2022-11-09T01:47:47;13.10;;;3.20;;
57663;SDS011;43493;53.098;6.064;2022-11-09T01:50:17;9.77;;;3.10;;
57663;SDS011;43493;53.098;6.064;2022-11-09T01:52:47;11.40;;;3.70;;
57663;SDS011;43493;53.098;6.064;2022-11-09T01:55:15;13.57;;;3.27;;
57663;SDS011;43493;53.098;6.064;2022-11-09T01:57:44;11.60;;;2.97;;
57663;SDS011;43493;53.098;6.064;2022-11-09T02:00:15;10.57;;;3.63;;
57663;SDS011;43493;53.098;6.064;2022-11-09T02:02:43;11.37;;;3.20;;
57663;SDS011;43493;53.098;6.064;2022-11-09T02:05:36;9.43;;;3.40;;
57663;SDS011;43493;53.098;6.064;2022-11-09T02:08:05;16.07;;;3.90;;
57663;SDS011;43493;53.098;6.064;2022-11-09T02:13:03;11.70;;;3.47;;
57663;SDS011;43493;53.098;6.064;2022-11-09T02:15:30;13.30;;;3.83;;
57663;SDS011;43493;53.098;6.064;2022-11-09T02:17:56;13.17;;;3.93;;
57663;SDS011;43493;53.098;6.064;2022-11-09T02:20:22;11.87;;;3.27;;
57663;SDS011;43493;53.098;6.064;2022-11-09T02:22:49;13.03;;;3.67;;
57663;SDS011;43493;53.098;6.064;2022-11-09T02:25:15;10.67;;;3.23;;
57663;SDS011;43493;53.098;6.064;2022-11-09T02:27:42;11.40;;;3.40;;
57663;SDS011;43493;53.098;6.064;2022-11-09T02:30:08;13.90;;;3.83;;
57663;SDS011;43493;53.098;6.064;2022-11-09T02:32:36;12.40;;;3.27;;
57663;SDS011;43493;53.098;6.064;2022-11-09T02:35:01;13.00;;;3.17;;
57663;SDS011;43493;53.098;6.064;2022-11-09T02:37:29;11.30;;;3.23;;
57663;SDS011;43493;53.098;6.064;2022-11-09T02:40:05;11.63;;;3.03;;
57663;SDS011;43493;53.098;6.064;2022-11-09T02:42:34;10.30;;;3.67;;
57663;SDS011;43493;53.098;6.064;2022-11-09T02:45:00;14.87;;;3.70;;
57663;SDS011;43493;53.098;6.064;2022-11-09T02:47:26;10.43;;;2.83;;
57663;SDS011;43493;53.098;6.064;2022-11-09T02:49:52;13.93;;;4.23;;
57663;SDS011;43493;53.098;6.064;2022-11-09T02:52:17;10.53;;;3.27;;
57663;SDS011;43493;53.098;6.064;2022-11-09T02:54:43;16.93;;;3.83;;
57663;SDS011;43493;53.098;6.064;2022-11-09T02:57:09;8.70;;;3.13;;
57663;SDS011;43493;53.098;6.064;2022-11-09T02:59:35;9.83;;;2.67;;
57663;SDS011;43493;53.098;6.064;2022-11-09T03:02:01;12.73;;;2.60;;
57663;SDS011;43493;53.098;6.064;2022-11-09T03:04:26;10.07;;;3.23;;
57663;SDS011;43493;53.098;6.064;2022-11-09T03:06:52;8.90;;;2.53;;
57663;SDS011;43493;53.098;6.064;2022-11-09T03:09:18;13.17;;;3.20;;
57663;SDS011;43493;53.098;6.064;2022-11-09T03:11:43;11.43;;;3.10;;
57663;SDS011;43493;53.098;6.064;2022-11-09T03:14:09;12.70;;;3.27;;
57663;SDS011;43493;53.098;6.064;2022-11-09T03:16:36;11.20;;;3.10;;
57663;SDS011;43493;53.098;6.064;2022-11-09T03:19:02;10.93;;;3.17;;
57663;SDS011;43493;53.098;6.064;2022-11-09T03:21:29;10.77;;;3.40;;
57663;SDS011;43493;53.098;6.064;2022-11-09T03:23:54;14.63;;;3.03;;
57663;SDS011;43493;53.098;6.064;2022-11-09T03:26:20;10.67;;;2.97;;
57663;SDS011;43493;53.098;6.064;2022-11-09T03:28:46;11.60;;;2.53;;
57663;SDS011;43493;53.098;6.064;2022-11-09T03:31:12;13.23;;;3.13;;
57663;SDS011;43493;53.098;6.064;2022-11-09T03:33:38;11.77;;;2.77;;
57663;SDS011;43493;53.098;6.064;2022-11-09T03:36:04;9.20;;;2.97;;
57663;SDS011;43493;53.098;6.064;2022-11-09T03:38:30;12.40;;;3.93;;
57663;SDS011;43493;53.098;6.064;2022-11-09T03:40:58;15.70;;;3.67;;
57663;SDS011;43493;53.098;6.064;2022-11-09T03:43:24;12.73;;;3.13;;
57663;SDS011;43493;53.098;6.064;2022-11-09T03:45:50;15.90;;;2.87;;
57663;SDS011;43493;53.098;6.064;2022-11-09T03:48:15;11.20;;;2.67;;
57663;SDS011;43493;53.098;6.064;2022-11-09T03:50:41;12.70;;;2.83;;
57663;SDS011;43493;53.098;6.064;2022-11-09T03:53:08;15.83;;;3.40;;
57663;SDS011;43493;53.098;6.064;2022-11-09T03:55:34;13.57;;;2.93;;
57663;SDS011;43493;53.098;6.064;2022-11-09T03:58:01;13.17;;;2.53;;
57663;SDS011;43493;53.098;6.064;2022-11-09T04:00:28;13.53;;;3.07;;
57663;SDS011;43493;53.098;6.064;2022-11-09T04:02:54;13.93;;;2.80;;
57663;SDS011;43493;53.098;6.064;2022-11-09T04:05:20;13.47;;;2.80;;
57663;SDS011;43493;53.098;6.064;2022-11-09T04:07:46;14.67;;;2.70;;
57663;SDS011;43493;53.098;6.064;2022-11-09T04:10:19;13.87;;;3.00;;
57663;SDS011;43493;53.098;6.064;2022-11-09T04:12:46;15.80;;;3.20;;
57663;SDS011;43493;53.098;6.064;2022-11-09T04:15:12;10.27;;;2.87;;
57663;SDS011;43493;53.098;6.064;2022-11-09T04:17:38;12.97;;;2.93;;
57663;SDS011;43493;53.098;6.064;2022-11-09T04:20:04;12.70;;;3.27;;
57663;SDS011;43493;53.098;6.064;2022-11-09T04:22:31;13.97;;;2.90;;
57663;SDS011;43493;53.098;6.064;2022-11-09T04:24:57;15.20;;;4.03;;
57663;SDS011;43493;53.098;6.064;2022-11-09T04:27:23;12.97;;;3.10;;
57663;SDS011;43493;53.098;6.064;2022-11-09T04:29:49;11.80;;;2.53;;
57663;SDS011;43493;53.098;6.064;2022-11-09T04:32:14;16.23;;;3.20;;
57663;SDS011;43493;53.098;6.064;2022-11-09T04:34:40;13.73;;;3.20;;
57663;SDS011;43493;53.098;6.064;2022-11-09T04:37:06;14.67;;;2.90;;
57663;SDS011;43493;53.098;6.064;2022-11-09T04:39:32;11.20;;;3.17;;
57663;SDS011;43493;53.098;6.064;2022-11-09T04:41:58;15.30;;;3.57;;
57663;SDS011;43493;53.098;6.064;2022-11-09T04:44:24;14.07;;;2.80;;
57663;SDS011;43493;53.098;6.064;2022-11-09T04:46:50;15.23;;;3.00;;
57663;SDS011;43493;53.098;6.064;2022-11-09T04:49:16;9.73;;;2.50;;
57663;SDS011;43493;53.098;6.064;2022-11-09T04:51:41;16.73;;;2.80;;
57663;SDS011;43493;53.098;6.064;2022-11-09T04:54:07;13.13;;;2.73;;
57663;SDS011;43493;53.098;6.064;2022-11-09T04:56:33;13.17;;;2.93;;
57663;SDS011;43493;53.098;6.064;2022-11-09T04:58:59;13.53;;;4.17;;
57663;SDS011;43493;53.098;6.064;2022-11-09T05:01:24;13.97;;;2.70;;
57663;SDS011;43493;53.098;6.064;2022-11-09T05:03:50;15.77;;;2.60;;
57663;SDS011;43493;53.098;6.064;2022-11-09T05:06:16;12.03;;;2.70;;
57663;SDS011;43493;53.098;6.064;2022-11-09T05:08:57;11.93;;;3.30;;
57663;SDS011;43493;53.098;6.064;2022-11-09T05:11:24;13.10;;;2.63;;
57663;SDS011;43493;53.098;6.064;2022-11-09T05:13:50;15.37;;;3.50;;
57663;SDS011;43493;53.098;6.064;2022-11-09T05:16:16;16.03;;;3.43;;
57663;SDS011;43493;53.098;6.064;2022-11-09T05:18:42;15.10;;;3.30;;
57663;SDS011;43493;53.098;6.064;2022-11-09T05:21:08;14.13;;;3.20;;
57663;SDS011;43493;53.098;6.064;2022-11-09T05:23:34;11.57;;;2.53;;
57663;SDS011;43493;53.098;6.064;2022-11-09T05:26:18;14.47;;;3.27;;
57663;SDS011;43493;53.098;6.064;2022-11-09T05:28:44;9.17;;;2.80;;
57663;SDS011;43493;53.098;6.064;2022-11-09T05:31:09;9.13;;;2.83;;
57663;SDS011;43493;53.098;6.064;2022-11-09T05:33:35;11.83;;;3.23;;
57663;SDS011;43493;53.098;6.064;2022-11-09T05:36:01;15.07;;;3.50;;
57663;SDS011;43493;53.098;6.064;2022-11-09T05:38:26;11.20;;;2.53;;
57663;SDS011;43493;53.098;6.064;2022-11-09T05:40:52;12.93;;;3.33;;
57663;SDS011;43493;53.098;6.064;2022-11-09T05:43:18;11.90;;;2.80;;
57663;SDS011;43493;53.098;6.064;2022-11-09T05:45:46;12.03;;;3.20;;
57663;SDS011;43493;53.098;6.064;2022-11-09T05:48:12;12.93;;;3.03;;
57663;SDS011;43493;53.098;6.064;2022-11-09T05:50:39;14.13;;;2.93;;
57663;SDS011;43493;53.098;6.064;2022-11-09T05:53:06;10.17;;;2.93;;
57663;SDS011;43493;53.098;6.064;2022-11-09T05:55:32;11.17;;;2.63;;
57663;SDS011;43493;53.098;6.064;2022-11-09T05:57:58;12.97;;;3.43;;
57663;SDS011;43493;53.098;6.064;2022-11-09T06:00:24;15.23;;;3.70;;
57663;SDS011;43493;53.098;6.064;2022-11-09T06:02:50;15.13;;;2.80;;
57663;SDS011;43493;53.098;6.064;2022-11-09T06:05:17;13.43;;;3.07;;
57663;SDS011;43493;53.098;6.064;2022-11-09T06:07:44;14.60;;;3.37;;
57663;SDS011;43493;53.098;6.064;2022-11-09T06:10:10;12.23;;;3.23;;
57663;SDS011;43493;53.098;6.064;2022-11-09T06:12:36;12.57;;;2.80;;
57663;SDS011;43493;53.098;6.064;2022-11-09T06:15:02;12.50;;;2.40;;
57663;SDS011;43493;53.098;6.064;2022-11-09T06:17:29;10.53;;;2.70;;
57663;SDS011;43493;53.098;6.064;2022-11-09T06:19:55;9.83;;;3.00;;
57663;SDS011;43493;53.098;6.064;2022-11-09T06:22:21;10.30;;;2.70;;
57663;SDS011;43493;53.098;6.064;2022-11-09T06:24:46;10.60;;;2.43;;
57663;SDS011;43493;53.098;6.064;2022-11-09T06:27:13;11.43;;;2.53;;
57663;SDS011;43493;53.098;6.064;2022-11-09T06:29:39;14.00;;;2.67;;
57663;SDS011;43493;53.098;6.064;2022-11-09T06:32:04;11.43;;;3.20;;
57663;SDS011;43493;53.098;6.064;2022-11-09T06:34:30;12.00;;;3.13;;
57663;SDS011;43493;53.098;6.064;2022-11-09T06:36:56;15.73;;;2.87;;
57663;SDS011;43493;53.098;6.064;2022-11-09T06:39:21;13.57;;;3.23;;
57663;SDS011;43493;53.098;6.064;2022-11-09T06:41:47;12.77;;;3.43;;
57663;SDS011;43493;53.098;6.064;2022-11-09T06:44:13;11.00;;;2.83;;
57663;SDS011;43493;53.098;6.064;2022-11-09T06:46:39;14.90;;;3.23;;
57663;SDS011;43493;53.098;6.064;2022-11-09T06:49:05;13.47;;;3.10;;
57663;SDS011;43493;53.098;6.064;2022-11-09T06:51:31;14.70;;;3.17;;
57663;SDS011;43493;53.098;6.064;2022-11-09T06:53:56;10.60;;;2.70;;
57663;SDS011;43493;53.098;6.064;2022-11-09T06:56:22;9.90;;;2.40;;
57663;SDS011;43493;53.098;6.064;2022-11-09T06:58:48;9.00;;;2.40;;
57663;SDS011;43493;53.098;6.064;2022-11-09T07:01:15;11.73;;;3.60;;
57663;SDS011;43493;53.098;6.064;2022-11-09T07:03:42;13.50;;;2.63;;
57663;SDS011;43493;53.098;6.064;2022-11-09T07:06:08;13.70;;;2.93;;
57663;SDS011;43493;53.098;6.064;2022-11-09T07:08:36;14.60;;;3.20;;
57663;SDS011;43493;53.098;6.064;2022-11-09T07:11:20;10.53;;;2.57;;
57663;SDS011;43493;53.098;6.064;2022-11-09T07:13:46;11.97;;;2.40;;
57663;SDS011;43493;53.098;6.064;2022-11-09T07:16:13;11.43;;;2.60;;
57663;SDS011;43493;53.098;6.064;2022-11-09T07:18:41;9.93;;;2.57;;
57663;SDS011;43493;53.098;6.064;2022-11-09T07:21:09;11.97;;;3.13;;
57663;SDS011;43493;53.098;6.064;2022-11-09T07:23:35;14.53;;;2.90;;
57663;SDS011;43493;53.098;6.064;2022-11-09T07:26:00;12.53;;;2.57;;
57663;SDS011;43493;53.098;6.064;2022-11-09T07:28:26;16.10;;;3.23;;
57663;SDS011;43493;53.098;6.064;2022-11-09T07:30:52;11.77;;;2.40;;
57663;SDS011;43493;53.098;6.064;2022-11-09T07:33:18;16.87;;;3.23;;
57663;SDS011;43493;53.098;6.064;2022-11-09T07:35:46;12.30;;;2.93;;
57663;SDS011;43493;53.098;6.064;2022-11-09T07:38:12;16.27;;;2.83;;
57663;SDS011;43493;53.098;6.064;2022-11-09T07:40:40;10.90;;;2.60;;
57663;SDS011;43493;53.098;6.064;2022-11-09T07:43:05;15.10;;;3.20;;
57663;SDS011;43493;53.098;6.064;2022-11-09T07:45:32;10.93;;;2.50;;
57663;SDS011;43493;53.098;6.064;2022-11-09T07:48:00;12.03;;;2.90;;
57663;SDS011;43493;53.098;6.064;2022-11-09T07:50:29;11.43;;;2.63;;
57663;SDS011;43493;53.098;6.064;2022-11-09T07:52:56;13.03;;;2.63;;
57663;SDS011;43493;53.098;6.064;2022-11-09T07:55:23;15.63;;;3.30;;
57663;SDS011;43493;53.098;6.064;2022-11-09T08:00:23;15.40;;;3.23;;
57663;SDS011;43493;53.098;6.064;2022-11-09T08:02:49;13.97;;;3.20;;
57663;SDS011;43493;53.098;6.064;2022-11-09T08:05:15;12.40;;;3.33;;
57663;SDS011;43493;53.098;6.064;2022-11-09T08:07:41;12.77;;;3.10;;
57663;SDS011;43493;53.098;6.064;2022-11-09T08:10:07;15.23;;;3.03;;
57663;SDS011;43493;53.098;6.064;2022-11-09T08:12:33;11.37;;;2.60;;
57663;SDS011;43493;53.098;6.064;2022-11-09T08:14:58;15.60;;;2.50;;
57663;SDS011;43493;53.098;6.064;2022-11-09T08:17:24;13.50;;;2.53;;
57663;SDS011;43493;53.098;6.064;2022-11-09T08:19:50;18.67;;;3.10;;
57663;SDS011;43493;53.098;6.064;2022-11-09T08:22:15;12.57;;;2.80;;
57663;SDS011;43493;53.098;6.064;2022-11-09T08:24:41;15.50;;;2.73;;
57663;SDS011;43493;53.098;6.064;2022-11-09T08:27:07;15.27;;;2.80;;
57663;SDS011;43493;53.098;6.064;2022-11-09T08:29:32;9.97;;;2.63;;
57663;SDS011;43493;53.098;6.064;2022-11-09T08:31:58;16.63;;;2.87;;
57663;SDS011;43493;53.098;6.064;2022-11-09T08:34:24;12.23;;;2.97;;
57663;SDS011;43493;53.098;6.064;2022-11-09T08:36:49;14.67;;;2.53;;
57663;SDS011;43493;53.098;6.064;2022-11-09T08:39:15;12.00;;;2.90;;
57663;SDS011;43493;53.098;6.064;2022-11-09T08:41:41;14.87;;;3.20;;
57663;SDS011;43493;53.098;6.064;2022-11-09T08:44:06;11.40;;;2.47;;
57663;SDS011;43493;53.098;6.064;2022-11-09T08:46:32;15.70;;;3.30;;
57663;SDS011;43493;53.098;6.064;2022-11-09T08:48:58;11.43;;;2.40;;
57663;SDS011;43493;53.098;6.064;2022-11-09T08:51:23;19.73;;;3.23;;
57663;SDS011;43493;53.098;6.064;2022-11-09T08:53:49;12.13;;;3.33;;
57663;SDS011;43493;53.098;6.064;2022-11-09T08:56:15;14.10;;;4.00;;
57663;SDS011;43493;53.098;6.064;2022-11-09T08:58:43;15.23;;;2.90;;
57663;SDS011;43493;53.098;6.064;2022-11-09T09:01:09;13.47;;;2.50;;
57663;SDS011;43493;53.098;6.064;2022-11-09T09:03:36;10.47;;;4.17;;
57663;SDS011;43493;53.098;6.064;2022-11-09T09:06:04;15.70;;;3.47;;
57663;SDS011;43493;53.098;6.064;2022-11-09T09:08:31;10.77;;;2.73;;
57663;SDS011;43493;53.098;6.064;2022-11-09T09:11:00;10.57;;;2.63;;
57663;SDS011;43493;53.098;6.064;2022-11-09T09:13:27;15.53;;;3.43;;
57663;SDS011;43493;53.098;6.064;2022-11-09T09:15:53;17.47;;;3.20;;
57663;SDS011;43493;53.098;6.064;2022-11-09T09:18:19;13.33;;;2.80;;
57663;SDS011;43493;53.098;6.064;2022-11-09T09:20:45;11.33;;;2.73;;
57663;SDS011;43493;53.098;6.064;2022-11-09T09:23:10;15.70;;;2.97;;
57663;SDS011;43493;53.098;6.064;2022-11-09T09:25:38;14.27;;;2.97;;
57663;SDS011;43493;53.098;6.064;2022-11-09T09:28:03;12.17;;;3.33;;
57663;SDS011;43493;53.098;6.064;2022-11-09T09:30:29;11.00;;;2.80;;
57663;SDS011;43493;53.098;6.064;2022-11-09T09:32:58;12.43;;;2.37;;
57663;SDS011;43493;53.098;6.064;2022-11-09T09:35:25;14.27;;;3.13;;
57663;SDS011;43493;53.098;6.064;2022-11-09T09:37:52;10.77;;;3.00;;
57663;SDS011;43493;53.098;6.064;2022-11-09T09:40:19;12.17;;;2.60;;
57663;SDS011;43493;53.098;6.064;2022-11-09T09:42:49;11.63;;;2.57;;
57663;SDS011;43493;53.098;6.064;2022-11-09T09:45:20;12.63;;;3.20;;
57663;SDS011;43493;53.098;6.064;2022-11-09T09:50:44;13.10;;;3.00;;
57663;SDS011;43493;53.098;6.064;2022-11-09T09:53:13;12.00;;;2.57;;
57663;SDS011;43493;53.098;6.064;2022-11-09T09:55:48;12.33;;;3.00;;
57663;SDS011;43493;53.098;6.064;2022-11-09T10:00:51;13.50;;;4.20;;
57663;SDS011;43493;53.098;6.064;2022-11-09T10:03:19;16.13;;;3.20;;
57663;SDS011;43493;53.098;6.064;2022-11-09T10:06:01;15.97;;;3.70;;
57663;SDS011;43493;53.098;6.064;2022-11-09T10:14:19;17.03;;;3.77;;
57663;SDS011;43493;53.098;6.064;2022-11-09T10:25:44;15.63;;;3.73;;
57663;SDS011;43493;53.098;6.064;2022-11-09T10:28:07;11.60;;;2.97;;
57663;SDS011;43493;53.098;6.064;2022-11-09T10:30:35;18.97;;;4.10;;
57663;SDS011;43493;53.098;6.064;2022-11-09T10:38:14;12.30;;;3.80;;
57663;SDS011;43493;53.098;6.064;2022-11-09T10:40:48;16.13;;;3.23;;
57663;SDS011;43493;53.098;6.064;2022-11-09T10:43:17;13.63;;;3.80;;
57663;SDS011;43493;53.098;6.064;2022-11-09T10:45:43;10.77;;;3.03;;
57663;SDS011;43493;53.098;6.064;2022-11-09T10:48:10;18.10;;;4.17;;
57663;SDS011;43493;53.098;6.064;2022-11-09T10:50:39;12.70;;;3.77;;
57663;SDS011;43493;53.098;6.064;2022-11-09T10:53:09;14.40;;;3.17;;
57663;SDS011;43493;53.098;6.064;2022-11-09T10:56:04;11.83;;;3.20;;
57663;SDS011;43493;53.098;6.064;2022-11-09T11:01:12;14.30;;;3.20;;
57663;SDS011;43493;53.098;6.064;2022-11-09T11:03:47;13.63;;;3.30;;
57663;SDS011;43493;53.098;6.064;2022-11-09T11:06:25;12.90;;;4.07;;
57663;SDS011;43493;53.098;6.064;2022-11-09T11:09:13;12.30;;;3.20;;
57663;SDS011;43493;53.098;6.064;2022-11-09T11:11:40;14.00;;;3.80;;
57663;SDS011;43493;53.098;6.064;2022-11-09T11:14:10;14.40;;;3.33;;
57663;SDS011;43493;53.098;6.064;2022-11-09T11:16:42;13.27;;;3.30;;
57663;SDS011;43493;53.098;6.064;2022-11-09T11:19:25;14.37;;;4.20;;
57663;SDS011;43493;53.098;6.064;2022-11-09T11:22:14;12.90;;;3.80;;
57663;SDS011;43493;53.098;6.064;2022-11-09T11:24:51;17.95;;;4.57;;
57663;SDS011;43493;53.098;6.064;2022-11-09T11:27:34;11.90;;;2.70;;
57663;SDS011;43493;53.098;6.064;2022-11-09T11:32:31;12.07;;;3.00;;
57663;SDS011;43493;53.098;6.064;2022-11-09T11:34:57;13.77;;;3.33;;
57663;SDS011;43493;53.098;6.064;2022-11-09T11:40:14;11.17;;;3.10;;
57663;SDS011;43493;53.098;6.064;2022-11-09T11:43:00;13.63;;;3.10;;
57663;SDS011;43493;53.098;6.064;2022-11-09T11:54:45;13.43;;;3.30;;
57663;SDS011;43493;53.098;6.064;2022-11-09T11:57:46;15.77;;;3.97;;
57663;SDS011;43493;53.098;6.064;2022-11-09T12:00:29;11.93;;;3.07;;
57663;SDS011;43493;53.098;6.064;2022-11-09T12:06:10;13.87;;;4.17;;
57663;SDS011;43493;53.098;6.064;2022-11-09T12:17:27;13.20;;;3.33;;
57663;SDS011;43493;53.098;6.064;2022-11-09T12:20:30;13.77;;;3.13;;
57663;SDS011;43493;53.098;6.064;2022-11-09T12:28:08;14.90;;;3.03;;
57663;SDS011;43493;53.098;6.064;2022-11-09T12:33:55;9.73;;;2.23;;
57663;SDS011;43493;53.098;6.064;2022-11-09T12:36:48;12.87;;;3.03;;
57663;SDS011;43493;53.098;6.064;2022-11-09T12:42:00;11.43;;;2.73;;
57663;SDS011;43493;53.098;6.064;2022-11-09T12:44:38;14.50;;;3.77;;
57663;SDS011;43493;53.098;6.064;2022-11-09T12:47:23;10.00;;;3.10;;
57663;SDS011;43493;53.098;6.064;2022-11-09T12:49:54;8.20;;;2.38;;
57663;SDS011;43493;53.098;6.064;2022-11-09T12:52:21;12.07;;;2.57;;
57663;SDS011;43493;53.098;6.064;2022-11-09T12:54:51;8.23;;;2.10;;
57663;SDS011;43493;53.098;6.064;2022-11-09T12:57:28;10.33;;;2.40;;
57663;SDS011;43493;53.098;6.064;2022-11-09T12:59:58;10.23;;;2.20;;
57663;SDS011;43493;53.098;6.064;2022-11-09T13:05:01;9.00;;;2.73;;
57663;SDS011;43493;53.098;6.064;2022-11-09T13:10:32;11.17;;;2.67;;
57663;SDS011;43493;53.098;6.064;2022-11-09T13:13:01;8.17;;;2.60;;
57663;SDS011;43493;53.098;6.064;2022-11-09T13:15:36;8.73;;;2.10;;
57663;SDS011;43493;53.098;6.064;2022-11-09T13:18:21;9.07;;;2.60;;
57663;SDS011;43493;53.098;6.064;2022-11-09T13:20:50;10.63;;;2.30;;
57663;SDS011;43493;53.098;6.064;2022-11-09T13:23:27;14.07;;;3.30;;
57663;SDS011;43493;53.098;6.064;2022-11-09T13:25:59;9.17;;;2.60;;
57663;SDS011;43493;53.098;6.064;2022-11-09T13:30:52;12.13;;;2.93;;
57663;SDS011;43493;53.098;6.064;2022-11-09T13:33:29;14.07;;;3.67;;
57663;SDS011;43493;53.098;6.064;2022-11-09T13:36:11;11.90;;;2.80;;
57663;SDS011;43493;53.098;6.064;2022-11-09T13:38:39;10.57;;;2.60;;
57663;SDS011;43493;53.098;6.064;2022-11-09T13:46:49;9.47;;;2.07;;
57663;SDS011;43493;53.098;6.064;2022-11-09T13:49:39;14.33;;;2.80;;
57663;SDS011;43493;53.098;6.064;2022-11-09T13:52:03;8.93;;;2.13;;
57663;SDS011;43493;53.098;6.064;2022-11-09T13:54:30;11.70;;;2.13;;
57663;SDS011;43493;53.098;6.064;2022-11-09T13:56:57;10.33;;;3.10;;
57663;SDS011;43493;53.098;6.064;2022-11-09T14:01:59;8.73;;;1.90;;
57663;SDS011;43493;53.098;6.064;2022-11-09T14:04:27;7.07;;;1.90;;
57663;SDS011;43493;53.098;6.064;2022-11-09T14:07:03;9.27;;;1.77;;
57663;SDS011;43493;53.098;6.064;2022-11-09T14:15:38;7.97;;;2.07;;
57663;SDS011;43493;53.098;6.064;2022-11-09T14:23:15;7.97;;;2.00;;
57663;SDS011;43493;53.098;6.064;2022-11-09T14:25:46;8.07;;;2.00;;
57663;SDS011;43493;53.098;6.064;2022-11-09T14:28:23;7.00;;;1.90;;
57663;SDS011;43493;53.098;6.064;2022-11-09T14:30:55;9.17;;;1.93;;
57663;SDS011;43493;53.098;6.064;2022-11-09T14:33:23;7.97;;;2.10;;
57663;SDS011;43493;53.098;6.064;2022-11-09T14:35:50;8.80;;;2.13;;
57663;SDS011;43493;53.098;6.064;2022-11-09T14:39:03;9.77;;;2.00;;
57663;SDS011;43493;53.098;6.064;2022-11-09T14:41:22;8.50;;;2.20;;
57663;SDS011;43493;53.098;6.064;2022-11-09T14:43:50;8.60;;;2.83;;
57663;SDS011;43493;53.098;6.064;2022-11-09T14:46:18;9.20;;;2.40;;
57663;SDS011;43493;53.098;6.064;2022-11-09T14:48:54;12.07;;;2.30;;
57663;SDS011;43493;53.098;6.064;2022-11-09T14:51:26;9.27;;;2.47;;
57663;SDS011;43493;53.098;6.064;2022-11-09T14:54:00;9.20;;;2.27;;
57663;SDS011;43493;53.098;6.064;2022-11-09T14:56:29;9.03;;;2.27;;
57663;SDS011;43493;53.098;6.064;2022-11-09T14:58:58;8.97;;;2.03;;
57663;SDS011;43493;53.098;6.064;2022-11-09T15:01:26;8.10;;;1.90;;
57663;SDS011;43493;53.098;6.064;2022-11-09T15:04:09;11.60;;;2.60;;
57663;SDS011;43493;53.098;6.064;2022-11-09T15:06:48;6.43;;;2.00;;
57663;SDS011;43493;53.098;6.064;2022-11-09T15:09:20;8.60;;;2.30;;
57663;SDS011;43493;53.098;6.064;2022-11-09T15:12:11;11.07;;;2.13;;
57663;SDS011;43493;53.098;6.064;2022-11-09T15:14:48;8.40;;;2.57;;
57663;SDS011;43493;53.098;6.064;2022-11-09T15:17:44;9.32;;;2.45;;
57663;SDS011;43493;53.098;6.064;2022-11-09T15:38:27;9.27;;;2.30;;
57663;SDS011;43493;53.098;6.064;2022-11-09T15:40:58;7.77;;;2.13;;
57663;SDS011;43493;53.098;6.064;2022-11-09T15:43:24;11.60;;;1.90;;
57663;SDS011;43493;53.098;6.064;2022-11-09T15:45:51;8.67;;;1.90;;
57663;SDS011;43493;53.098;6.064;2022-11-09T15:48:18;6.40;;;1.77;;
57663;SDS011;43493;53.098;6.064;2022-11-09T15:50:43;7.87;;;2.00;;
57663;SDS011;43493;53.098;6.064;2022-11-09T15:53:12;8.80;;;1.90;;
57663;SDS011;43493;53.098;6.064;2022-11-09T15:55:39;8.47;;;2.00;;
57663;SDS011;43493;53.098;6.064;2022-11-09T15:58:05;11.60;;;2.13;;
57663;SDS011;43493;53.098;6.064;2022-11-09T16:00:31;7.07;;;1.77;;
57663;SDS011;43493;53.098;6.064;2022-11-09T16:02:56;11.57;;;2.03;;
57663;SDS011;43493;53.098;6.064;2022-11-09T16:05:22;9.67;;;2.63;;
57663;SDS011;43493;53.098;6.064;2022-11-09T16:07:52;7.90;;;1.60;;
57663;SDS011;43493;53.098;6.064;2022-11-09T16:10:19;8.83;;;2.07;;
57663;SDS011;43493;53.098;6.064;2022-11-09T16:12:47;9.60;;;2.23;;
57663;SDS011;43493;53.098;6.064;2022-11-09T16:15:17;11.70;;;2.57;;
57663;SDS011;43493;53.098;6.064;2022-11-09T16:17:43;12.23;;;4.47;;
57663;SDS011;43493;53.098;6.064;2022-11-09T16:20:09;10.13;;;2.73;;
57663;SDS011;43493;53.098;6.064;2022-11-09T16:22:35;12.30;;;2.50;;
57663;SDS011;43493;53.098;6.064;2022-11-09T16:25:01;15.50;;;3.20;;
57663;SDS011;43493;53.098;6.064;2022-11-09T16:27:27;10.53;;;2.80;;
57663;SDS011;43493;53.098;6.064;2022-11-09T16:29:53;10.70;;;2.87;;
57663;SDS011;43493;53.098;6.064;2022-11-09T16:32:19;14.93;;;3.97;;
57663;SDS011;43493;53.098;6.064;2022-11-09T16:34:45;7.73;;;2.63;;
57663;SDS011;43493;53.098;6.064;2022-11-09T16:37:10;10.03;;;2.50;;
57663;SDS011;43493;53.098;6.064;2022-11-09T16:39:36;17.47;;;3.77;;
57663;SDS011;43493;53.098;6.064;2022-11-09T16:42:06;12.30;;;3.60;;
57663;SDS011;43493;53.098;6.064;2022-11-09T16:44:34;12.00;;;2.90;;
57663;SDS011;43493;53.098;6.064;2022-11-09T16:47:02;13.87;;;2.90;;